sensor_id;sensor_type;location;lat;lon;timestamp;P1;durP1;ratioP1;P2;durP2;ratioP2
58260;SDS011;44058;52.898;6.502;2023-04-03T00:00:05;1.83;;;0.85;;
58260;SDS011;44058;52.898;6.502;2023-04-03T00:02:32;2.28;;;0.68;;
58260;SDS011;44058;52.898;6.502;2023-04-03T00:04:58;2.25;;;0.80;;
58260;SDS011;44058;52.898;6.502;2023-04-03T00:07:27;1.63;;;0.70;;
58260;SDS011;44058;52.898;6.502;2023-04-03T00:09:53;1.50;;;0.75;;
58260;SDS011;44058;52.898;6.502;2023-04-03T00:12:19;2.28;;;0.63;;
58260;SDS011;44058;52.898;6.502;2023-04-03T00:14:46;1.75;;;0.60;;
58260;SDS011;44058;52.898;6.502;2023-04-03T00:17:12;3.20;;;0.70;;
58260;SDS011;44058;52.898;6.502;2023-04-03T00:19:45;1.77;;;0.80;;
58260;SDS011;44058;52.898;6.502;2023-04-03T00:22:11;2.40;;;0.68;;
58260;SDS011;44058;52.898;6.502;2023-04-03T00:24:37;2.85;;;0.70;;
58260;SDS011;44058;52.898;6.502;2023-04-03T00:27:04;0.77;;;0.52;;
58260;SDS011;44058;52.898;6.502;2023-04-03T00:29:30;1.48;;;0.63;;
58260;SDS011;44058;52.898;6.502;2023-04-03T00:31:56;0.95;;;0.70;;
58260;SDS011;44058;52.898;6.502;2023-04-03T00:34:22;1.73;;;0.80;;
58260;SDS011;44058;52.898;6.502;2023-04-03T00:36:49;2.03;;;0.90;;
58260;SDS011;44058;52.898;6.502;2023-04-03T00:39:16;3.17;;;1.08;;
58260;SDS011;44058;52.898;6.502;2023-04-03T00:41:42;2.25;;;0.65;;
58260;SDS011;44058;52.898;6.502;2023-04-03T00:47:05;0.80;;;0.70;;
58260;SDS011;44058;52.898;6.502;2023-04-03T00:49:32;2.42;;;1.00;;
58260;SDS011;44058;52.898;6.502;2023-04-03T00:51:58;1.83;;;0.80;;
58260;SDS011;44058;52.898;6.502;2023-04-03T00:54:25;1.48;;;0.90;;
58260;SDS011;44058;52.898;6.502;2023-04-03T00:56:52;1.23;;;0.52;;
58260;SDS011;44058;52.898;6.502;2023-04-03T00:59:24;3.13;;;1.02;;
58260;SDS011;44058;52.898;6.502;2023-04-03T01:01:52;1.60;;;0.70;;
58260;SDS011;44058;52.898;6.502;2023-04-03T01:04:39;2.03;;;0.90;;
58260;SDS011;44058;52.898;6.502;2023-04-03T01:07:06;1.60;;;0.60;;
58260;SDS011;44058;52.898;6.502;2023-04-03T01:09:33;2.45;;;1.00;;
58260;SDS011;44058;52.898;6.502;2023-04-03T01:12:19;2.40;;;0.82;;
58260;SDS011;44058;52.898;6.502;2023-04-03T01:14:47;1.10;;;0.60;;
58260;SDS011;44058;52.898;6.502;2023-04-03T01:17:34;1.38;;;0.68;;
58260;SDS011;44058;52.898;6.502;2023-04-03T01:22:38;2.92;;;0.80;;
58260;SDS011;44058;52.898;6.502;2023-04-03T01:25:09;2.08;;;0.80;;
58260;SDS011;44058;52.898;6.502;2023-04-03T01:27:35;2.75;;;1.00;;
58260;SDS011;44058;52.898;6.502;2023-04-03T01:30:02;1.75;;;0.80;;
58260;SDS011;44058;52.898;6.502;2023-04-03T01:32:28;2.20;;;0.80;;
58260;SDS011;44058;52.898;6.502;2023-04-03T01:34:54;1.92;;;0.95;;
58260;SDS011;44058;52.898;6.502;2023-04-03T01:37:21;2.90;;;0.80;;
58260;SDS011;44058;52.898;6.502;2023-04-03T01:39:47;1.48;;;0.80;;
58260;SDS011;44058;52.898;6.502;2023-04-03T01:42:13;3.35;;;1.10;;
58260;SDS011;44058;52.898;6.502;2023-04-03T01:44:41;3.17;;;1.20;;
58260;SDS011;44058;52.898;6.502;2023-04-03T01:47:07;2.22;;;0.98;;
58260;SDS011;44058;52.898;6.502;2023-04-03T01:49:34;0.88;;;0.85;;
58260;SDS011;44058;52.898;6.502;2023-04-03T01:52:00;2.88;;;1.15;;
58260;SDS011;44058;52.898;6.502;2023-04-03T01:54:26;1.77;;;0.80;;
58260;SDS011;44058;52.898;6.502;2023-04-03T01:56:53;1.08;;;0.80;;
58260;SDS011;44058;52.898;6.502;2023-04-03T01:59:19;2.28;;;0.70;;
58260;SDS011;44058;52.898;6.502;2023-04-03T02:01:45;1.20;;;0.70;;
58260;SDS011;44058;52.898;6.502;2023-04-03T02:04:12;1.90;;;0.90;;
58260;SDS011;44058;52.898;6.502;2023-04-03T02:06:38;1.90;;;1.10;;
58260;SDS011;44058;52.898;6.502;2023-04-03T02:09:05;3.97;;;1.17;;
58260;SDS011;44058;52.898;6.502;2023-04-03T02:11:31;2.92;;;0.95;;
58260;SDS011;44058;52.898;6.502;2023-04-03T02:13:57;2.35;;;1.00;;
58260;SDS011;44058;52.898;6.502;2023-04-03T02:16:23;2.50;;;0.90;;
58260;SDS011;44058;52.898;6.502;2023-04-03T02:18:49;3.97;;;1.00;;
58260;SDS011;44058;52.898;6.502;2023-04-03T02:21:16;2.38;;;1.00;;
58260;SDS011;44058;52.898;6.502;2023-04-03T02:23:42;4.28;;;0.90;;
58260;SDS011;44058;52.898;6.502;2023-04-03T02:26:09;2.80;;;0.93;;
58260;SDS011;44058;52.898;6.502;2023-04-03T02:28:36;2.38;;;1.00;;
58260;SDS011;44058;52.898;6.502;2023-04-03T02:31:03;1.05;;;0.75;;
58260;SDS011;44058;52.898;6.502;2023-04-03T02:33:34;2.30;;;1.08;;
58260;SDS011;44058;52.898;6.502;2023-04-03T02:36:02;2.60;;;1.05;;
58260;SDS011;44058;52.898;6.502;2023-04-03T02:38:28;2.80;;;1.10;;
58260;SDS011;44058;52.898;6.502;2023-04-03T02:41:02;1.65;;;1.00;;
58260;SDS011;44058;52.898;6.502;2023-04-03T02:43:28;2.00;;;0.90;;
58260;SDS011;44058;52.898;6.502;2023-04-03T02:45:54;3.20;;;1.33;;
58260;SDS011;44058;52.898;6.502;2023-04-03T02:48:21;1.77;;;0.93;;
58260;SDS011;44058;52.898;6.502;2023-04-03T02:50:48;4.10;;;0.90;;
58260;SDS011;44058;52.898;6.502;2023-04-03T02:53:14;4.13;;;1.10;;
58260;SDS011;44058;52.898;6.502;2023-04-03T02:55:40;1.45;;;0.93;;
58260;SDS011;44058;52.898;6.502;2023-04-03T02:58:07;1.48;;;1.10;;
58260;SDS011;44058;52.898;6.502;2023-04-03T03:00:33;2.03;;;1.00;;
58260;SDS011;44058;52.898;6.502;2023-04-03T03:03:02;2.05;;;1.10;;
58260;SDS011;44058;52.898;6.502;2023-04-03T03:05:29;2.58;;;1.40;;
58260;SDS011;44058;52.898;6.502;2023-04-03T03:07:56;3.78;;;1.10;;
58260;SDS011;44058;52.898;6.502;2023-04-03T03:10:23;3.63;;;1.10;;
58260;SDS011;44058;52.898;6.502;2023-04-03T03:12:50;1.83;;;1.00;;
58260;SDS011;44058;52.898;6.502;2023-04-03T03:15:16;2.25;;;1.15;;
58260;SDS011;44058;52.898;6.502;2023-04-03T03:17:42;3.75;;;1.30;;
58260;SDS011;44058;52.898;6.502;2023-04-03T03:20:08;2.15;;;0.90;;
58260;SDS011;44058;52.898;6.502;2023-04-03T03:22:35;2.97;;;1.10;;
58260;SDS011;44058;52.898;6.502;2023-04-03T03:25:02;2.33;;;1.10;;
58260;SDS011;44058;52.898;6.502;2023-04-03T03:27:28;2.40;;;1.20;;
58260;SDS011;44058;52.898;6.502;2023-04-03T03:29:55;2.50;;;1.08;;
58260;SDS011;44058;52.898;6.502;2023-04-03T03:32:21;2.42;;;0.98;;
58260;SDS011;44058;52.898;6.502;2023-04-03T03:34:47;2.15;;;1.05;;
58260;SDS011;44058;52.898;6.502;2023-04-03T03:37:13;2.10;;;1.00;;
58260;SDS011;44058;52.898;6.502;2023-04-03T03:39:39;2.85;;;1.33;;
58260;SDS011;44058;52.898;6.502;2023-04-03T03:42:06;2.53;;;1.20;;
58260;SDS011;44058;52.898;6.502;2023-04-03T03:44:32;1.73;;;1.23;;
58260;SDS011;44058;52.898;6.502;2023-04-03T03:47:01;3.17;;;1.10;;
58260;SDS011;44058;52.898;6.502;2023-04-03T03:49:28;1.40;;;0.90;;
58260;SDS011;44058;52.898;6.502;2023-04-03T03:51:54;5.97;;;0.90;;
58260;SDS011;44058;52.898;6.502;2023-04-03T03:54:20;3.07;;;1.30;;
58260;SDS011;44058;52.898;6.502;2023-04-03T03:56:46;2.47;;;1.20;;
58260;SDS011;44058;52.898;6.502;2023-04-03T03:59:13;2.88;;;1.17;;
58260;SDS011;44058;52.898;6.502;2023-04-03T04:01:39;2.30;;;1.00;;
58260;SDS011;44058;52.898;6.502;2023-04-03T04:04:06;4.23;;;1.57;;
58260;SDS011;44058;52.898;6.502;2023-04-03T04:06:33;3.28;;;1.33;;
58260;SDS011;44058;52.898;6.502;2023-04-03T04:09:00;2.67;;;1.43;;
58260;SDS011;44058;52.898;6.502;2023-04-03T04:11:26;2.90;;;1.20;;
58260;SDS011;44058;52.898;6.502;2023-04-03T04:13:52;2.67;;;1.07;;
58260;SDS011;44058;52.898;6.502;2023-04-03T04:16:18;3.20;;;1.20;;
58260;SDS011;44058;52.898;6.502;2023-04-03T04:18:45;2.97;;;1.50;;
58260;SDS011;44058;52.898;6.502;2023-04-03T04:21:11;2.60;;;1.20;;
58260;SDS011;44058;52.898;6.502;2023-04-03T04:23:37;5.13;;;1.50;;
58260;SDS011;44058;52.898;6.502;2023-04-03T04:26:03;2.37;;;1.30;;
58260;SDS011;44058;52.898;6.502;2023-04-03T04:28:30;4.07;;;1.43;;
58260;SDS011;44058;52.898;6.502;2023-04-03T04:30:56;3.10;;;1.50;;
58260;SDS011;44058;52.898;6.502;2023-04-03T04:33:22;2.55;;;1.10;;
58260;SDS011;44058;52.898;6.502;2023-04-03T04:35:48;3.07;;;1.50;;
58260;SDS011;44058;52.898;6.502;2023-04-03T04:38:15;5.23;;;1.77;;
58260;SDS011;44058;52.898;6.502;2023-04-03T04:40:42;5.40;;;1.60;;
58260;SDS011;44058;52.898;6.502;2023-04-03T04:43:08;2.58;;;1.23;;
58260;SDS011;44058;52.898;6.502;2023-04-03T04:45:36;3.47;;;1.52;;
58260;SDS011;44058;52.898;6.502;2023-04-03T04:48:02;2.53;;;1.30;;
58260;SDS011;44058;52.898;6.502;2023-04-03T04:50:28;3.97;;;1.40;;
58260;SDS011;44058;52.898;6.502;2023-04-03T04:52:54;4.73;;;1.83;;
58260;SDS011;44058;52.898;6.502;2023-04-03T04:55:20;4.43;;;1.83;;
58260;SDS011;44058;52.898;6.502;2023-04-03T04:57:46;5.07;;;1.63;;
58260;SDS011;44058;52.898;6.502;2023-04-03T05:00:13;5.27;;;2.00;;
58260;SDS011;44058;52.898;6.502;2023-04-03T05:02:40;5.97;;;1.80;;
58260;SDS011;44058;52.898;6.502;2023-04-03T05:05:06;2.80;;;1.60;;
58260;SDS011;44058;52.898;6.502;2023-04-03T05:07:33;4.33;;;1.60;;
58260;SDS011;44058;52.898;6.502;2023-04-03T05:10:02;5.07;;;2.00;;
58260;SDS011;44058;52.898;6.502;2023-04-03T05:12:29;3.43;;;1.60;;
58260;SDS011;44058;52.898;6.502;2023-04-03T05:14:55;3.10;;;1.93;;
58260;SDS011;44058;52.898;6.502;2023-04-03T05:17:21;3.70;;;1.43;;
58260;SDS011;44058;52.898;6.502;2023-04-03T05:19:47;3.27;;;1.70;;
58260;SDS011;44058;52.898;6.502;2023-04-03T05:22:13;6.13;;;1.83;;
58260;SDS011;44058;52.898;6.502;2023-04-03T05:24:40;5.87;;;2.23;;
58260;SDS011;44058;52.898;6.502;2023-04-03T05:27:06;4.60;;;1.80;;
58260;SDS011;44058;52.898;6.502;2023-04-03T05:29:33;5.37;;;1.80;;
58260;SDS011;44058;52.898;6.502;2023-04-03T05:31:59;3.47;;;1.60;;
58260;SDS011;44058;52.898;6.502;2023-04-03T05:34:25;3.57;;;1.60;;
58260;SDS011;44058;52.898;6.502;2023-04-03T05:36:51;3.80;;;1.90;;
58260;SDS011;44058;52.898;6.502;2023-04-03T05:39:18;3.90;;;1.70;;
58260;SDS011;44058;52.898;6.502;2023-04-03T05:41:44;5.47;;;1.87;;
58260;SDS011;44058;52.898;6.502;2023-04-03T05:44:10;6.27;;;2.63;;
58260;SDS011;44058;52.898;6.502;2023-04-03T05:46:36;7.63;;;2.77;;
58260;SDS011;44058;52.898;6.502;2023-04-03T05:49:02;5.87;;;2.40;;
58260;SDS011;44058;52.898;6.502;2023-04-03T05:51:30;4.53;;;1.83;;
58260;SDS011;44058;52.898;6.502;2023-04-03T05:53:59;7.90;;;2.00;;
58260;SDS011;44058;52.898;6.502;2023-04-03T05:56:27;8.43;;;2.47;;
58260;SDS011;44058;52.898;6.502;2023-04-03T05:58:53;3.10;;;2.20;;
58260;SDS011;44058;52.898;6.502;2023-04-03T06:01:21;3.67;;;1.83;;
58260;SDS011;44058;52.898;6.502;2023-04-03T06:03:48;4.28;;;1.90;;
58260;SDS011;44058;52.898;6.502;2023-04-03T06:06:15;3.90;;;2.07;;
58260;SDS011;44058;52.898;6.502;2023-04-03T06:08:42;4.63;;;2.10;;
58260;SDS011;44058;52.898;6.502;2023-04-03T06:11:09;4.70;;;1.90;;
58260;SDS011;44058;52.898;6.502;2023-04-03T06:13:35;3.93;;;1.90;;
58260;SDS011;44058;52.898;6.502;2023-04-03T06:16:02;9.63;;;2.23;;
58260;SDS011;44058;52.898;6.502;2023-04-03T06:18:29;3.97;;;2.00;;
58260;SDS011;44058;52.898;6.502;2023-04-03T06:20:55;3.90;;;1.77;;
58260;SDS011;44058;52.898;6.502;2023-04-03T06:23:21;2.35;;;1.40;;
58260;SDS011;44058;52.898;6.502;2023-04-03T06:25:47;5.50;;;1.90;;
58260;SDS011;44058;52.898;6.502;2023-04-03T06:28:13;4.33;;;2.03;;
58260;SDS011;44058;52.898;6.502;2023-04-03T06:30:39;5.88;;;1.98;;
58260;SDS011;44058;52.898;6.502;2023-04-03T06:33:06;3.67;;;1.90;;
58260;SDS011;44058;52.898;6.502;2023-04-03T06:35:32;4.28;;;1.98;;
58260;SDS011;44058;52.898;6.502;2023-04-03T06:38:00;3.13;;;1.60;;
58260;SDS011;44058;52.898;6.502;2023-04-03T06:40:26;3.47;;;1.67;;
58260;SDS011;44058;52.898;6.502;2023-04-03T06:42:52;4.77;;;2.00;;
58260;SDS011;44058;52.898;6.502;2023-04-03T06:45:19;7.43;;;1.67;;
58260;SDS011;44058;52.898;6.502;2023-04-03T06:47:45;5.87;;;2.33;;
58260;SDS011;44058;52.898;6.502;2023-04-03T06:50:11;5.47;;;2.00;;
58260;SDS011;44058;52.898;6.502;2023-04-03T06:52:39;5.72;;;1.80;;
58260;SDS011;44058;52.898;6.502;2023-04-03T06:55:06;5.70;;;2.28;;
58260;SDS011;44058;52.898;6.502;2023-04-03T06:57:33;2.38;;;1.40;;
58260;SDS011;44058;52.898;6.502;2023-04-03T06:59:59;2.45;;;1.55;;
58260;SDS011;44058;52.898;6.502;2023-04-03T07:02:26;7.05;;;1.98;;
58260;SDS011;44058;52.898;6.502;2023-04-03T07:04:52;5.20;;;1.80;;
58260;SDS011;44058;52.898;6.502;2023-04-03T07:07:19;7.03;;;2.10;;
58260;SDS011;44058;52.898;6.502;2023-04-03T07:09:46;4.72;;;2.38;;
58260;SDS011;44058;52.898;6.502;2023-04-03T07:12:13;3.92;;;2.10;;
58260;SDS011;44058;52.898;6.502;2023-04-03T07:14:40;4.45;;;1.63;;
58260;SDS011;44058;52.898;6.502;2023-04-03T07:17:06;3.95;;;1.48;;
58260;SDS011;44058;52.898;6.502;2023-04-03T07:19:32;4.85;;;1.67;;
58260;SDS011;44058;52.898;6.502;2023-04-03T07:21:58;5.60;;;2.25;;
58260;SDS011;44058;52.898;6.502;2023-04-03T07:24:25;3.45;;;1.75;;
58260;SDS011;44058;52.898;6.502;2023-04-03T07:26:52;5.18;;;1.38;;
58260;SDS011;44058;52.898;6.502;2023-04-03T07:29:18;5.90;;;1.40;;
58260;SDS011;44058;52.898;6.502;2023-04-03T07:31:46;2.92;;;1.65;;
58260;SDS011;44058;52.898;6.502;2023-04-03T07:34:15;2.47;;;1.35;;
58260;SDS011;44058;52.898;6.502;2023-04-03T07:36:41;4.63;;;1.63;;
58260;SDS011;44058;52.898;6.502;2023-04-03T07:39:07;5.68;;;1.50;;
58260;SDS011;44058;52.898;6.502;2023-04-03T07:41:34;5.22;;;1.45;;
58260;SDS011;44058;52.898;6.502;2023-04-03T07:44:00;3.53;;;1.40;;
58260;SDS011;44058;52.898;6.502;2023-04-03T07:46:27;5.05;;;1.58;;
58260;SDS011;44058;52.898;6.502;2023-04-03T07:48:53;3.42;;;1.40;;
58260;SDS011;44058;52.898;6.502;2023-04-03T07:51:20;2.28;;;1.30;;
58260;SDS011;44058;52.898;6.502;2023-04-03T07:53:46;5.40;;;1.73;;
58260;SDS011;44058;52.898;6.502;2023-04-03T07:56:12;4.22;;;1.60;;
58260;SDS011;44058;52.898;6.502;2023-04-03T07:58:38;4.13;;;1.85;;
58260;SDS011;44058;52.898;6.502;2023-04-03T08:01:05;2.05;;;1.13;;
58260;SDS011;44058;52.898;6.502;2023-04-03T08:03:31;3.53;;;1.25;;
58260;SDS011;44058;52.898;6.502;2023-04-03T08:06:01;4.85;;;1.25;;
58260;SDS011;44058;52.898;6.502;2023-04-03T08:08:28;3.95;;;1.70;;
58260;SDS011;44058;52.898;6.502;2023-04-03T08:10:57;2.72;;;1.20;;
58260;SDS011;44058;52.898;6.502;2023-04-03T08:13:23;3.83;;;1.20;;
58260;SDS011;44058;52.898;6.502;2023-04-03T08:15:50;4.03;;;1.38;;
58260;SDS011;44058;52.898;6.502;2023-04-03T08:18:16;3.70;;;1.20;;
58260;SDS011;44058;52.898;6.502;2023-04-03T08:20:43;2.58;;;1.23;;
58260;SDS011;44058;52.898;6.502;2023-04-03T08:23:09;3.00;;;1.20;;
58260;SDS011;44058;52.898;6.502;2023-04-03T08:25:39;2.00;;;0.98;;
58260;SDS011;44058;52.898;6.502;2023-04-03T08:28:05;3.35;;;0.90;;
58260;SDS011;44058;52.898;6.502;2023-04-03T08:30:32;3.22;;;1.08;;
58260;SDS011;44058;52.898;6.502;2023-04-03T08:33:00;2.33;;;0.93;;
58260;SDS011;44058;52.898;6.502;2023-04-03T08:35:26;1.98;;;0.95;;
58260;SDS011;44058;52.898;6.502;2023-04-03T08:37:53;3.38;;;1.25;;
58260;SDS011;44058;52.898;6.502;2023-04-03T08:40:19;2.72;;;1.27;;
58260;SDS011;44058;52.898;6.502;2023-04-03T08:48:06;5.07;;;1.15;;
58260;SDS011;44058;52.898;6.502;2023-04-03T08:50:34;3.03;;;1.00;;
58260;SDS011;44058;52.898;6.502;2023-04-03T08:55:37;3.10;;;0.93;;
58260;SDS011;44058;52.898;6.502;2023-04-03T08:58:26;2.00;;;0.80;;
58260;SDS011;44058;52.898;6.502;2023-04-03T09:01:02;1.02;;;0.45;;
58260;SDS011;44058;52.898;6.502;2023-04-03T09:03:33;3.50;;;1.42;;
58260;SDS011;44058;52.898;6.502;2023-04-03T09:06:04;0.93;;;0.60;;
58260;SDS011;44058;52.898;6.502;2023-04-03T09:13:35;1.58;;;0.73;;
58260;SDS011;44058;52.898;6.502;2023-04-03T09:16:05;2.63;;;0.70;;
58260;SDS011;44058;52.898;6.502;2023-04-03T09:18:33;2.30;;;0.85;;
58260;SDS011;44058;52.898;6.502;2023-04-03T09:23:34;1.95;;;0.77;;
58260;SDS011;44058;52.898;6.502;2023-04-03T09:26:06;2.42;;;0.70;;
58260;SDS011;44058;52.898;6.502;2023-04-03T09:28:35;1.38;;;0.80;;
58260;SDS011;44058;52.898;6.502;2023-04-03T09:31:05;0.90;;;0.50;;
58260;SDS011;44058;52.898;6.502;2023-04-03T09:33:37;2.60;;;0.80;;
58260;SDS011;44058;52.898;6.502;2023-04-03T09:36:05;2.40;;;0.60;;
58260;SDS011;44058;52.898;6.502;2023-04-03T09:38:32;2.03;;;0.93;;
58260;SDS011;44058;52.898;6.502;2023-04-03T09:41:04;1.13;;;0.60;;
58260;SDS011;44058;52.898;6.502;2023-04-03T09:43:32;0.95;;;0.47;;
58260;SDS011;44058;52.898;6.502;2023-04-03T09:46:16;1.60;;;0.50;;
58260;SDS011;44058;52.898;6.502;2023-04-03T09:48:49;2.25;;;0.50;;
58260;SDS011;44058;52.898;6.502;2023-04-03T09:51:16;1.00;;;0.50;;
58260;SDS011;44058;52.898;6.502;2023-04-03T09:53:43;3.45;;;0.60;;
58260;SDS011;44058;52.898;6.502;2023-04-03T09:58:43;1.17;;;0.55;;
58260;SDS011;44058;52.898;6.502;2023-04-03T10:01:29;2.03;;;0.60;;
58260;SDS011;44058;52.898;6.502;2023-04-03T10:06:31;2.15;;;0.88;;
58260;SDS011;44058;52.898;6.502;2023-04-03T10:08:59;1.17;;;0.43;;
58260;SDS011;44058;52.898;6.502;2023-04-03T10:11:30;2.17;;;0.50;;
58260;SDS011;44058;52.898;6.502;2023-04-03T10:13:57;0.80;;;0.50;;
58260;SDS011;44058;52.898;6.502;2023-04-03T10:16:46;2.45;;;0.70;;
58260;SDS011;44058;52.898;6.502;2023-04-03T10:22:09;0.93;;;0.60;;
58260;SDS011;44058;52.898;6.502;2023-04-03T10:35:34;2.10;;;0.50;;
58260;SDS011;44058;52.898;6.502;2023-04-03T10:38:09;2.88;;;0.75;;
58260;SDS011;44058;52.898;6.502;2023-04-03T10:40:47;1.05;;;0.65;;
58260;SDS011;44058;52.898;6.502;2023-04-03T10:43:26;2.17;;;0.70;;
58260;SDS011;44058;52.898;6.502;2023-04-03T10:48:40;1.02;;;0.77;;
58260;SDS011;44058;52.898;6.502;2023-04-03T10:51:15;1.10;;;0.60;;
58260;SDS011;44058;52.898;6.502;2023-04-03T10:53:47;1.67;;;0.70;;
58260;SDS011;44058;52.898;6.502;2023-04-03T10:56:19;1.92;;;0.60;;
58260;SDS011;44058;52.898;6.502;2023-04-03T10:58:52;2.55;;;0.77;;
58260;SDS011;44058;52.898;6.502;2023-04-03T11:01:21;1.17;;;0.65;;
58260;SDS011;44058;52.898;6.502;2023-04-03T11:03:52;2.42;;;0.75;;
58260;SDS011;44058;52.898;6.502;2023-04-03T11:06:19;1.30;;;0.60;;
58260;SDS011;44058;52.898;6.502;2023-04-03T11:09:03;1.38;;;0.50;;
58260;SDS011;44058;52.898;6.502;2023-04-03T11:11:37;1.90;;;0.88;;
58260;SDS011;44058;52.898;6.502;2023-04-03T11:14:49;3.08;;;0.70;;
58260;SDS011;44058;52.898;6.502;2023-04-03T11:19:39;1.40;;;0.77;;
58260;SDS011;44058;52.898;6.502;2023-04-03T11:24:56;3.38;;;0.82;;
58260;SDS011;44058;52.898;6.502;2023-04-03T11:27:23;2.10;;;0.90;;
58260;SDS011;44058;52.898;6.502;2023-04-03T11:29:50;3.38;;;0.93;;
58260;SDS011;44058;52.898;6.502;2023-04-03T11:35:04;1.48;;;0.70;;
58260;SDS011;44058;52.898;6.502;2023-04-03T11:37:44;1.23;;;0.77;;
58260;SDS011;44058;52.898;6.502;2023-04-03T11:40:31;3.53;;;1.10;;
58260;SDS011;44058;52.898;6.502;2023-04-03T11:47:53;1.77;;;0.68;;
58260;SDS011;44058;52.898;6.502;2023-04-03T11:53:43;1.15;;;0.65;;
58260;SDS011;44058;52.898;6.502;2023-04-03T11:55:46;2.80;;;0.70;;
58260;SDS011;44058;52.898;6.502;2023-04-03T11:58:19;1.60;;;0.70;;
58260;SDS011;44058;52.898;6.502;2023-04-03T12:00:46;1.77;;;0.70;;
58260;SDS011;44058;52.898;6.502;2023-04-03T12:08:28;1.15;;;0.68;;
58260;SDS011;44058;52.898;6.502;2023-04-03T12:13:41;2.58;;;0.77;;
58260;SDS011;44058;52.898;6.502;2023-04-03T12:16:19;2.60;;;1.02;;
58260;SDS011;44058;52.898;6.502;2023-04-03T12:21:15;2.60;;;1.05;;
58260;SDS011;44058;52.898;6.502;2023-04-03T12:46:59;2.65;;;0.90;;
58260;SDS011;44058;52.898;6.502;2023-04-03T12:51:52;4.75;;;0.90;;
58260;SDS011;44058;52.898;6.502;2023-04-03T12:54:19;1.98;;;0.85;;
58260;SDS011;44058;52.898;6.502;2023-04-03T12:56:47;2.33;;;0.90;;
58260;SDS011;44058;52.898;6.502;2023-04-03T12:59:15;1.85;;;0.68;;
58260;SDS011;44058;52.898;6.502;2023-04-03T13:01:42;2.25;;;0.80;;
58260;SDS011;44058;52.898;6.502;2023-04-03T13:04:10;4.13;;;1.10;;
58260;SDS011;44058;52.898;6.502;2023-04-03T13:06:39;1.50;;;1.00;;
58260;SDS011;44058;52.898;6.502;2023-04-03T13:09:05;1.92;;;1.08;;
58260;SDS011;44058;52.898;6.502;2023-04-03T13:11:33;2.13;;;0.73;;
58260;SDS011;44058;52.898;6.502;2023-04-03T13:14:05;1.90;;;1.00;;
58260;SDS011;44058;52.898;6.502;2023-04-03T13:16:32;2.85;;;0.82;;
58260;SDS011;44058;52.898;6.502;2023-04-03T13:18:58;2.03;;;0.80;;
58260;SDS011;44058;52.898;6.502;2023-04-03T13:21:28;2.40;;;0.90;;
58260;SDS011;44058;52.898;6.502;2023-04-03T13:23:56;1.08;;;0.77;;
58260;SDS011;44058;52.898;6.502;2023-04-03T13:26:24;2.35;;;0.90;;
58260;SDS011;44058;52.898;6.502;2023-04-03T13:28:51;1.98;;;0.95;;
58260;SDS011;44058;52.898;6.502;2023-04-03T13:31:25;1.58;;;0.90;;
58260;SDS011;44058;52.898;6.502;2023-04-03T13:33:54;1.30;;;0.90;;
58260;SDS011;44058;52.898;6.502;2023-04-03T13:36:21;2.20;;;1.15;;
58260;SDS011;44058;52.898;6.502;2023-04-03T13:38:58;1.45;;;0.90;;
58260;SDS011;44058;52.898;6.502;2023-04-03T13:41:34;1.77;;;0.80;;
58260;SDS011;44058;52.898;6.502;2023-04-03T13:46:50;2.28;;;1.15;;
58260;SDS011;44058;52.898;6.502;2023-04-03T13:49:20;1.88;;;1.02;;
58260;SDS011;44058;52.898;6.502;2023-04-03T13:51:47;3.95;;;1.20;;
58260;SDS011;44058;52.898;6.502;2023-04-03T13:54:22;1.42;;;1.05;;
58260;SDS011;44058;52.898;6.502;2023-04-03T13:56:52;3.05;;;1.15;;
58260;SDS011;44058;52.898;6.502;2023-04-03T13:59:36;2.47;;;1.10;;
58260;SDS011;44058;52.898;6.502;2023-04-03T14:06:55;2.10;;;0.90;;
58260;SDS011;44058;52.898;6.502;2023-04-03T14:09:22;2.03;;;1.10;;
58260;SDS011;44058;52.898;6.502;2023-04-03T14:11:49;2.40;;;1.10;;
58260;SDS011;44058;52.898;6.502;2023-04-03T14:14:21;2.65;;;0.95;;
58260;SDS011;44058;52.898;6.502;2023-04-03T14:16:51;1.85;;;1.15;;
58260;SDS011;44058;52.898;6.502;2023-04-03T14:19:20;3.83;;;1.50;;
58260;SDS011;44058;52.898;6.502;2023-04-03T14:21:47;3.47;;;1.58;;
58260;SDS011;44058;52.898;6.502;2023-04-03T14:24:13;2.95;;;1.38;;
58260;SDS011;44058;52.898;6.502;2023-04-03T14:26:39;1.70;;;1.10;;
58260;SDS011;44058;52.898;6.502;2023-04-03T14:29:06;3.78;;;1.35;;
58260;SDS011;44058;52.898;6.502;2023-04-03T14:31:32;3.17;;;1.45;;
58260;SDS011;44058;52.898;6.502;2023-04-03T14:33:58;3.40;;;1.10;;
58260;SDS011;44058;52.898;6.502;2023-04-03T14:36:24;3.08;;;1.33;;
58260;SDS011;44058;52.898;6.502;2023-04-03T14:38:51;1.85;;;1.17;;
58260;SDS011;44058;52.898;6.502;2023-04-03T14:41:19;2.60;;;1.30;;
58260;SDS011;44058;52.898;6.502;2023-04-03T14:43:46;2.40;;;1.30;;
58260;SDS011;44058;52.898;6.502;2023-04-03T14:46:14;2.03;;;1.10;;
58260;SDS011;44058;52.898;6.502;2023-04-03T14:48:40;2.25;;;1.40;;
58260;SDS011;44058;52.898;6.502;2023-04-03T14:51:06;5.07;;;1.40;;
58260;SDS011;44058;52.898;6.502;2023-04-03T14:53:32;2.78;;;1.27;;
58260;SDS011;44058;52.898;6.502;2023-04-03T14:55:59;2.35;;;1.20;;
58260;SDS011;44058;52.898;6.502;2023-04-03T14:58:25;2.25;;;1.45;;
58260;SDS011;44058;52.898;6.502;2023-04-03T15:00:51;2.15;;;1.00;;
58260;SDS011;44058;52.898;6.502;2023-04-03T15:03:20;3.05;;;1.33;;
58260;SDS011;44058;52.898;6.502;2023-04-03T15:05:48;1.65;;;1.02;;
58260;SDS011;44058;52.898;6.502;2023-04-03T15:08:19;2.47;;;1.17;;
58260;SDS011;44058;52.898;6.502;2023-04-03T15:10:46;2.65;;;1.05;;
58260;SDS011;44058;52.898;6.502;2023-04-03T15:13:12;1.70;;;0.90;;
58260;SDS011;44058;52.898;6.502;2023-04-03T15:15:39;7.50;;;1.48;;
58260;SDS011;44058;52.898;6.502;2023-04-03T15:18:05;1.40;;;1.00;;
58260;SDS011;44058;52.898;6.502;2023-04-03T15:20:32;2.53;;;1.10;;
58260;SDS011;44058;52.898;6.502;2023-04-03T15:22:59;3.00;;;1.02;;
58260;SDS011;44058;52.898;6.502;2023-04-03T15:25:29;2.40;;;1.05;;
58260;SDS011;44058;52.898;6.502;2023-04-03T15:27:56;1.67;;;1.00;;
58260;SDS011;44058;52.898;6.502;2023-04-03T15:30:22;1.33;;;1.02;;
58260;SDS011;44058;52.898;6.502;2023-04-03T15:32:49;1.73;;;0.88;;
58260;SDS011;44058;52.898;6.502;2023-04-03T15:35:15;2.92;;;1.20;;
58260;SDS011;44058;52.898;6.502;2023-04-03T15:37:41;1.30;;;0.90;;
58260;SDS011;44058;52.898;6.502;2023-04-03T15:40:08;1.42;;;0.80;;
58260;SDS011;44058;52.898;6.502;2023-04-03T15:42:34;2.35;;;1.08;;
58260;SDS011;44058;52.898;6.502;2023-04-03T15:45:00;1.60;;;0.85;;
58260;SDS011;44058;52.898;6.502;2023-04-03T15:47:26;3.28;;;1.02;;
58260;SDS011;44058;52.898;6.502;2023-04-03T15:49:53;1.85;;;0.90;;
58260;SDS011;44058;52.898;6.502;2023-04-03T15:52:20;2.00;;;1.08;;
58260;SDS011;44058;52.898;6.502;2023-04-03T15:54:46;2.20;;;0.80;;
58260;SDS011;44058;52.898;6.502;2023-04-03T15:57:12;2.20;;;1.00;;
58260;SDS011;44058;52.898;6.502;2023-04-03T15:59:38;2.10;;;0.95;;
58260;SDS011;44058;52.898;6.502;2023-04-03T16:02:05;1.75;;;1.00;;
58260;SDS011;44058;52.898;6.502;2023-04-03T16:04:32;1.63;;;0.98;;
58260;SDS011;44058;52.898;6.502;2023-04-03T16:07:00;1.27;;;0.77;;
58260;SDS011;44058;52.898;6.502;2023-04-03T16:09:26;3.00;;;1.20;;
58260;SDS011;44058;52.898;6.502;2023-04-03T16:11:52;1.92;;;0.98;;
58260;SDS011;44058;52.898;6.502;2023-04-03T16:14:18;1.33;;;0.80;;
58260;SDS011;44058;52.898;6.502;2023-04-03T16:16:45;1.83;;;0.85;;
58260;SDS011;44058;52.898;6.502;2023-04-03T16:19:11;3.33;;;1.00;;
58260;SDS011;44058;52.898;6.502;2023-04-03T16:21:38;1.27;;;0.60;;
58260;SDS011;44058;52.898;6.502;2023-04-03T16:24:04;1.83;;;0.90;;
58260;SDS011;44058;52.898;6.502;2023-04-03T16:26:31;2.95;;;1.02;;
58260;SDS011;44058;52.898;6.502;2023-04-03T16:28:57;1.30;;;0.70;;
58260;SDS011;44058;52.898;6.502;2023-04-03T16:31:24;1.52;;;0.80;;
58260;SDS011;44058;52.898;6.502;2023-04-03T16:33:51;2.55;;;0.90;;